Time;durP1;ratioP1;P1;durP2;ratioP2;P2;SDS_P1;SDS_P2;PMS_P1;PMS_P2;Temp;Humidity;BMP_temperature;BMP_pressure;BME280_temperature;BME280_humidity;BME280_pressure;Samples;Min_cycle;Max_cycle;Signal;HPM_P1;HPM_P2
2021/12/18 00:01:32;;;;;;;5.50;2.53;;;6.10;99.90;5.90;102646.00;;;;5036918;27;92765;-68
2021/12/18 00:03:57;;;;;;;3.17;2.10;;;6.10;99.90;5.90;102647.00;;;;5035792;27;93892;-69
2021/12/18 00:06:27;;;;;;;2.07;1.47;;;6.00;99.90;5.90;102639.00;;;;5035308;27;93718;-69
2021/12/18 00:08:54;;;;;;;2.43;1.97;;;6.10;99.90;5.90;102633.00;;;;5017955;27;92971;-69
2021/12/18 00:11:20;;;;;;;1.80;1.70;;;6.10;99.90;5.90;102639.00;;;;5028610;27;92849;-69
2021/12/18 00:13:45;;;;;;;3.57;1.87;;;6.10;99.90;5.90;102640.00;;;;5029884;27;123376;-69
2021/12/18 00:16:11;;;;;;;5.13;2.20;;;6.00;99.90;5.90;102644.00;;;;5035088;27;122593;-69
2021/12/18 00:18:37;;;;;;;4.13;1.83;;;6.00;99.90;5.90;102644.00;;;;5039044;27;92918;-69
2021/12/18 00:21:07;;;;;;;5.13;2.13;;;6.00;99.90;5.90;102640.00;;;;5037187;27;108215;-69
2021/12/18 00:23:32;;;;;;;2.70;1.57;;;6.00;99.90;5.80;102634.00;;;;5017419;27;92484;-68
2021/12/18 00:25:58;;;;;;;3.43;2.10;;;6.00;99.90;5.80;102624.00;;;;5035484;27;116682;-69
2021/12/18 00:28:24;;;;;;;3.57;2.70;;;6.00;99.90;5.80;102624.00;;;;5017358;27;93437;-69
2021/12/18 00:30:50;;;;;;;5.13;2.03;;;6.00;99.90;5.80;102629.00;;;;5034324;27;108234;-69
2021/12/18 00:33:16;;;;;;;5.70;2.97;;;6.00;99.90;5.80;102621.00;;;;5036470;27;108680;-66
2021/12/18 00:35:42;;;;;;;2.80;2.27;;;5.90;99.90;5.70;102617.00;;;;5036277;27;121865;-68
2021/12/18 00:38:09;;;;;;;3.10;1.87;;;5.90;99.90;5.70;102608.00;;;;5037467;27;92964;-67
2021/12/18 00:40:46;;;;;;;4.97;2.23;;;5.90;99.90;5.70;102612.00;;;;5036275;27;92775;-69
2021/12/18 00:43:28;;;;;;;3.10;2.23;;;5.90;99.90;5.70;102617.00;;;;5035236;27;94325;-67
2021/12/18 00:45:55;;;;;;;3.50;2.40;;;5.90;99.90;5.70;102624.00;;;;5018590;27;94078;-67
2021/12/18 00:48:21;;;;;;;4.97;2.13;;;5.90;99.90;5.70;102620.00;;;;5035910;27;92359;-68
2021/12/18 00:50:48;;;;;;;5.57;2.80;;;5.80;99.90;5.70;102625.00;;;;5035860;27;92790;-67
2021/12/18 00:53:14;;;;;;;2.60;1.73;;;5.80;99.90;5.70;102616.00;;;;5035993;27;93558;-67
2021/12/18 00:55:41;;;;;;;3.27;1.77;;;5.90;99.90;5.70;102618.00;;;;5034675;27;93848;-67
2021/12/18 00:58:06;;;;;;;6.33;1.63;;;5.80;99.90;5.70;102617.00;;;;5017732;27;93322;-68
2021/12/18 01:00:33;;;;;;;5.03;2.03;;;5.90;99.90;5.70;102617.00;;;;5017118;27;92882;-67
2021/12/18 01:03:01;;;;;;;3.70;2.20;;;5.90;99.90;5.80;102627.00;;;;5034973;27;93513;-67
2021/12/18 01:05:30;;;;;;;3.13;1.77;;;6.00;99.90;5.80;102624.00;;;;5054965;27;92855;-67
2021/12/18 01:07:58;;;;;;;4.27;2.30;;;5.90;99.90;5.80;102635.00;;;;5056168;27;92745;-67
2021/12/18 01:13:37;;;;;;;7.53;2.87;;;6.00;99.90;5.80;102621.00;;;;4933737;28;92448;-68
2021/12/18 01:16:14;;;;;;;5.50;2.63;;;6.00;99.90;5.80;102633.00;;;;4921111;28;93059;-68
2021/12/18 01:24:09;;;;;;;4.93;3.47;;;6.00;99.90;5.80;102633.00;;;;5014580;27;92759;-67
2021/12/18 01:26:35;;;;;;;4.20;3.63;;;6.00;99.90;5.80;102635.00;;;;5015138;27;93025;-67
2021/12/18 01:29:01;;;;;;;8.63;3.37;;;6.00;99.90;5.80;102626.00;;;;5014561;27;93016;-67
2021/12/18 01:31:26;;;;;;;5.40;2.53;;;6.00;99.90;5.80;102632.00;;;;5014564;27;108454;-67
2021/12/18 01:33:52;;;;;;;7.67;3.53;;;6.00;99.90;5.80;102629.00;;;;5014330;27;93779;-67
2021/12/18 01:36:18;;;;;;;7.27;3.37;;;5.90;99.90;5.80;102625.00;;;;5015308;27;92854;-66
2021/12/18 01:38:43;;;;;;;5.67;3.30;;;5.90;99.90;5.70;102623.00;;;;5014729;27;103434;-66
2021/12/18 01:41:09;;;;;;;9.23;3.33;;;5.90;99.90;5.70;102626.00;;;;5018432;27;111080;-67
2021/12/18 01:51:34;;;;;;;5.87;3.00;;;5.80;99.90;5.70;102634.00;;;;5015878;27;92982;-67
2021/12/18 01:54:00;;;;;;;6.93;3.53;;;5.80;99.90;5.60;102626.00;;;;5014246;27;92695;-67
2021/12/18 01:56:27;;;;;;;9.90;3.73;;;5.70;99.90;5.60;102617.00;;;;5014495;27;103103;-67
2021/12/18 01:58:55;;;;;;;3.80;2.87;;;5.80;99.90;5.70;102623.00;;;;5014369;27;92727;-66
2021/12/18 02:01:21;;;;;;;8.60;4.93;;;5.80;99.90;5.60;102616.00;;;;5013231;27;93142;-67
2021/12/18 02:03:48;;;;;;;6.43;3.87;;;5.80;99.90;5.60;102625.00;;;;5014460;27;92860;-67
2021/12/18 02:06:14;;;;;;;7.33;3.57;;;5.80;99.90;5.60;102608.00;;;;5013849;27;93232;-66
2021/12/18 02:08:43;;;;;;;10.40;4.33;;;5.80;99.90;5.60;102605.00;;;;5014039;27;111177;-67
2021/12/18 02:14:20;;;;;;;5.67;4.10;;;5.80;99.90;5.60;102614.00;;;;4996565;27;92953;-68
2021/12/18 02:22:18;;;;;;;5.80;3.43;;;5.80;99.90;5.60;102610.00;;;;4969497;28;95754;-69
2021/12/18 02:24:43;;;;;;;8.20;4.73;;;5.80;99.90;5.60;102614.00;;;;5000312;27;93135;-69
2021/12/18 02:27:10;;;;;;;9.00;4.70;;;5.80;99.90;5.60;102603.00;;;;5013319;27;93902;-69
2021/12/18 02:29:37;;;;;;;6.47;3.83;;;5.80;99.90;5.60;102608.00;;;;5014479;27;92146;-69
2021/12/18 02:32:05;;;;;;;7.07;4.43;;;5.70;99.90;5.60;102605.00;;;;5013558;27;92852;-69
2021/12/18 02:34:33;;;;;;;6.70;4.20;;;5.80;99.90;5.60;102606.00;;;;5014224;27;93170;-70
2021/12/18 02:37:05;;;;;;;8.30;3.87;;;5.70;99.90;5.60;102607.00;;;;5013033;27;94070;-70
2021/12/18 02:39:56;;;;;;;6.40;3.73;;;5.80;99.90;5.60;102608.00;;;;5013458;27;93430;-70
2021/12/18 02:42:22;;;;;;;6.33;3.63;;;5.70;99.90;5.50;102610.00;;;;5014052;27;92717;-70
2021/12/18 02:44:49;;;;;;;6.43;2.47;;;5.70;99.90;5.60;102619.00;;;;5014663;27;93952;-70
2021/12/18 02:47:15;;;;;;;7.23;4.07;;;5.80;99.90;5.60;102610.00;;;;5013611;27;93045;-69
2021/12/18 02:49:51;;;;;;;9.13;4.23;;;5.70;99.90;5.50;102616.00;;;;5013551;27;110793;-68
2021/12/18 02:52:18;;;;;;;7.67;4.23;;;5.70;99.90;5.60;102618.00;;;;5013084;27;93022;-69
2021/12/18 02:54:44;;;;;;;4.67;3.03;;;5.80;99.90;5.60;102619.00;;;;5013634;27;93268;-69
2021/12/18 02:57:12;;;;;;;5.93;4.30;;;5.70;99.90;5.60;102624.00;;;;5026833;27;121388;-68
2021/12/18 02:59:42;;;;;;;4.43;2.87;;;5.70;99.90;5.60;102606.00;;;;5032946;27;92784;-68
2021/12/18 03:02:08;;;;;;;8.23;3.93;;;5.80;99.90;5.60;102616.00;;;;5032306;27;93837;-69
2021/12/18 03:04:36;;;;;;;6.90;4.50;;;5.70;99.90;5.60;102607.00;;;;5033816;27;93228;-68
2021/12/18 03:07:05;;;;;;;8.20;4.03;;;5.70;99.90;5.60;102602.00;;;;5032714;27;93981;-69
2021/12/18 03:25:36;;;;;;;7.30;3.60;;;5.70;99.90;5.60;102600.00;;;;5021453;27;93022;-69
2021/12/18 03:28:04;;;;;;;7.23;4.10;;;6.20;99.90;5.60;102591.00;;;;5032855;27;93648;-69
2021/12/18 03:30:31;;;;;;;10.67;4.70;;;5.70;99.90;5.60;102584.00;;;;5032768;27;92981;-69
2021/12/18 03:32:58;;;;;;;8.40;4.57;;;5.80;99.90;5.60;102587.00;;;;5003801;27;94466;-69
2021/12/18 03:35:24;;;;;;;7.13;4.60;;;5.80;99.90;5.60;102585.00;;;;5012431;27;92959;-68
2021/12/18 03:37:50;;;;;;;12.23;4.53;;;5.70;99.90;5.60;102585.00;;;;4993745;27;100805;-69
2021/12/18 03:40:21;;;;;;;10.33;4.27;;;5.80;99.90;5.60;102584.00;;;;5022914;27;111337;-68
2021/12/18 03:42:48;;;;;;;7.67;3.20;;;5.80;99.90;5.70;102588.00;;;;5014140;27;93057;-68
2021/12/18 03:45:17;;;;;;;7.00;4.40;;;5.80;99.90;5.70;102585.00;;;;5001205;27;97617;-68
2021/12/18 03:47:44;;;;;;;6.73;3.73;;;5.80;99.90;5.60;102579.00;;;;5002048;27;104498;-68
2021/12/18 03:50:10;;;;;;;11.57;3.67;;;5.80;99.90;5.70;102581.00;;;;4996915;27;96355;-68
2021/12/18 03:52:36;;;;;;;6.50;4.07;;;5.80;99.90;5.60;102580.00;;;;5032938;27;93853;-68
2021/12/18 03:55:04;;;;;;;6.63;4.27;;;6.50;99.90;5.60;102570.00;;;;5032987;27;93454;-69
2021/12/18 03:57:30;;;;;;;10.13;3.83;;;5.80;99.90;5.70;102572.00;;;;5032353;27;94479;-69
2021/12/18 03:59:55;;;;;;;6.17;3.93;;;5.80;99.90;5.70;102586.00;;;;5032464;27;109749;-68
2021/12/18 04:02:21;;;;;;;6.00;3.73;;;5.80;99.90;5.60;102572.00;;;;5012345;27;93178;-69
2021/12/18 04:04:47;;;;;;;4.13;3.53;;;5.80;99.90;5.70;102573.00;;;;5032184;27;105252;-69
2021/12/18 04:07:14;;;;;;;5.43;4.03;;;5.90;99.90;5.70;102579.00;;;;5029699;27;123561;-68
2021/12/18 04:09:40;;;;;;;6.60;4.63;;;5.90;99.90;5.70;102562.00;;;;4994675;27;92134;-68
2021/12/18 04:12:06;;;;;;;6.70;4.50;;;5.80;99.90;5.70;102574.00;;;;5012345;27;92853;-68
2021/12/18 04:14:32;;;;;;;6.30;4.67;;;5.90;99.90;5.70;102568.00;;;;5012403;27;102651;-69
2021/12/18 04:16:58;;;;;;;7.87;5.30;;;5.80;99.90;5.70;102556.00;;;;5010798;27;121122;-68
2021/12/18 04:19:24;;;;;;;7.40;4.53;;;5.90;99.90;5.70;102556.00;;;;5013136;27;92922;-67
2021/12/18 04:21:49;;;;;;;9.47;4.80;;;5.90;99.90;5.70;102551.00;;;;5012568;27;92859;-68
2021/12/18 04:24:15;;;;;;;8.57;4.73;;;5.90;99.90;5.70;102559.00;;;;5012722;27;124420;-68
2021/12/18 04:26:42;;;;;;;4.97;3.60;;;5.90;99.90;5.70;102562.00;;;;5015001;27;121038;-68
2021/12/18 04:29:07;;;;;;;9.23;4.37;;;5.90;99.90;5.70;102564.00;;;;5006565;27;92757;-68
2021/12/18 04:31:36;;;;;;;12.37;4.70;;;5.80;99.90;5.70;102551.00;;;;5035769;27;92734;-68
2021/12/18 04:34:04;;;;;;;8.43;4.00;;;5.90;99.90;5.70;102549.00;;;;5036244;27;92599;-68
2021/12/18 04:36:31;;;;;;;9.77;4.33;;;5.90;99.90;5.60;102555.00;;;;5003443;27;93159;-68
2021/12/18 04:38:57;;;;;;;5.17;3.83;;;5.80;99.90;5.60;102561.00;;;;5015755;27;92856;-68
2021/12/18 04:41:34;;;;;;;5.23;4.17;;;5.80;99.90;5.60;102567.00;;;;5014434;27;109523;-67
2021/12/18 04:44:00;;;;;;;8.53;4.50;;;6.50;99.90;5.60;102566.00;;;;5014738;27;93012;-68
2021/12/18 04:46:26;;;;;;;8.67;4.50;;;5.80;99.90;5.60;102564.00;;;;5016490;27;108653;-67
2021/12/18 04:48:51;;;;;;;7.67;3.90;;;5.80;99.90;5.60;102565.00;;;;5032567;27;110512;-67
2021/12/18 04:51:17;;;;;;;6.33;3.67;;;5.80;99.90;5.60;102568.00;;;;5034426;27;109164;-67
2021/12/18 04:53:43;;;;;;;5.03;4.00;;;5.80;99.90;5.60;102556.00;;;;5016069;27;122084;-68
2021/12/18 04:56:09;;;;;;;4.53;3.60;;;5.80;99.90;5.60;102548.00;;;;5015014;27;122112;-69
2021/12/18 04:58:34;;;;;;;7.93;4.83;;;5.80;99.90;5.60;102551.00;;;;5016418;27;109566;-68
2021/12/18 05:01:00;;;;;;;7.03;3.73;;;5.80;99.90;5.60;102550.00;;;;5034205;27;106560;-68
2021/12/18 05:03:26;;;;;;;5.60;3.37;;;5.70;99.90;5.60;102562.00;;;;5011517;27;107775;-68
2021/12/18 05:05:52;;;;;;;4.90;3.57;;;5.80;99.90;5.60;102559.00;;;;4995794;27;94852;-68
2021/12/18 05:08:17;;;;;;;5.10;2.70;;;5.70;99.90;5.60;102562.00;;;;5015116;27;92750;-68
2021/12/18 05:10:43;;;;;;;7.27;3.63;;;5.70;99.90;5.60;102565.00;;;;5015611;27;92839;-70
2021/12/18 05:13:09;;;;;;;6.00;3.00;;;5.70;99.90;5.60;102571.00;;;;5022860;27;94601;-69
2021/12/18 05:15:35;;;;;;;2.73;2.17;;;5.80;99.90;5.60;102569.00;;;;5054991;27;94102;-68
2021/12/18 05:18:00;;;;;;;3.53;2.10;;;5.70;99.90;5.60;102576.00;;;;5056635;27;92998;-68
2021/12/18 05:20:26;;;;;;;2.63;2.10;;;5.70;99.90;5.60;102577.00;;;;5055873;27;93535;-68
2021/12/18 05:22:52;;;;;;;4.73;2.00;;;5.70;99.90;5.60;102588.00;;;;5041944;27;107826;-68
2021/12/18 05:25:17;;;;;;;5.23;2.50;;;5.80;99.90;5.60;102576.00;;;;5034560;27;122025;-68
2021/12/18 05:27:43;;;;;;;4.07;1.93;;;5.80;99.90;5.60;102584.00;;;;5034496;27;111342;-68
2021/12/18 05:30:11;;;;;;;3.07;1.47;;;5.80;99.90;5.60;102581.00;;;;5032543;27;109106;-69
2021/12/18 05:32:38;;;;;;;1.87;1.40;;;5.80;99.90;5.60;102582.00;;;;5028673;27;94445;-67
2021/12/18 05:35:07;;;;;;;2.20;0.90;;;5.80;99.90;5.60;102578.00;;;;5054927;27;94183;-69
2021/12/18 05:37:46;;;;;;;1.77;0.80;;;5.80;99.90;5.60;102570.00;;;;5036735;27;92772;-67
2021/12/18 05:40:25;;;;;;;1.73;1.00;;;5.70;99.90;5.60;102577.00;;;;5053969;27;92649;-68
2021/12/18 05:42:53;;;;;;;0.97;0.87;;;5.70;99.90;5.60;102577.00;;;;5035725;27;95469;-68
2021/12/18 05:45:19;;;;;;;0.90;0.63;;;5.70;99.90;5.60;102575.00;;;;5036957;27;92887;-68
2021/12/18 05:47:46;;;;;;;1.57;0.70;;;5.70;99.90;5.60;102585.00;;;;5035799;27;99046;-68
2021/12/18 05:50:15;;;;;;;2.07;0.77;;;5.70;99.90;5.60;102571.00;;;;5035748;27;104181;-68
2021/12/18 05:52:41;;;;;;;0.97;0.83;;;5.80;99.90;5.60;102567.00;;;;5033260;27;109793;-68
2021/12/18 05:55:09;;;;;;;1.17;0.57;;;5.80;99.90;5.60;102566.00;;;;5033924;27;94243;-70
2021/12/18 05:57:35;;;;;;;2.53;0.60;;;5.80;99.90;5.60;102563.00;;;;5034334;27;97492;-68
2021/12/18 06:00:04;;;;;;;1.23;1.00;;;5.80;99.90;5.60;102576.00;;;;5044697;27;92880;-69
2021/12/18 06:02:29;;;;;;;1.13;0.70;;;5.80;99.90;5.60;102576.00;;;;5054049;27;94550;-69
2021/12/18 06:04:55;;;;;;;1.13;0.60;;;5.70;99.90;5.60;102570.00;;;;5054121;27;122119;-69
2021/12/18 06:07:32;;;;;;;1.23;0.83;;;6.30;99.90;5.60;102572.00;;;;5053565;27;93129;-68
2021/12/18 06:09:59;;;;;;;1.10;0.80;;;5.80;99.90;5.60;102571.00;;;;5055297;27;93135;-68
2021/12/18 06:12:25;;;;;;;1.80;0.97;;;5.80;99.90;5.60;102568.00;;;;5047714;27;93469;-69
2021/12/18 06:14:52;;;;;;;0.90;0.70;;;5.70;99.90;5.70;102565.00;;;;5015297;27;92890;-68
2021/12/18 06:17:18;;;;;;;3.57;1.10;;;5.90;99.90;5.60;102567.00;;;;5026611;27;92747;-70
2021/12/18 06:19:44;;;;;;;2.17;1.23;;;5.80;99.90;5.70;102562.00;;;;5033449;27;96584;-70
2021/12/18 06:22:09;;;;;;;2.33;1.13;;;5.90;99.90;5.70;102564.00;;;;5024361;27;103432;-69
2021/12/18 06:24:35;;;;;;;2.87;1.30;;;5.80;99.90;5.70;102557.00;;;;5033660;27;121833;-68
2021/12/18 06:27:01;;;;;;;3.10;1.17;;;5.80;99.90;5.60;102558.00;;;;5026841;27;92775;-68
2021/12/18 06:29:27;;;;;;;3.00;1.80;;;5.90;99.90;5.70;102558.00;;;;5050239;27;93209;-68
2021/12/18 06:31:52;;;;;;;1.83;1.10;;;5.80;99.90;5.70;102570.00;;;;5052257;27;122941;-68
2021/12/18 06:34:18;;;;;;;1.90;1.60;;;5.90;99.90;5.70;102563.00;;;;5032845;27;122904;-68
2021/12/18 06:36:44;;;;;;;2.60;1.63;;;5.80;99.90;5.70;102561.00;;;;5027787;27;92214;-69
2021/12/18 06:39:10;;;;;;;2.03;1.57;;;5.80;99.90;5.70;102562.00;;;;5014591;27;93147;-69
2021/12/18 06:41:36;;;;;;;3.50;1.90;;;5.90;99.90;5.70;102548.00;;;;5028485;27;122967;-69
2021/12/18 06:44:02;;;;;;;3.40;1.90;;;5.90;99.90;5.70;102559.00;;;;5011841;27;108559;-68
2021/12/18 06:46:28;;;;;;;3.53;1.40;;;5.80;99.90;5.70;102554.00;;;;5028184;27;109641;-68
2021/12/18 06:48:53;;;;;;;1.87;1.60;;;5.80;99.90;5.70;102558.00;;;;5029706;27;108232;-70
2021/12/18 06:51:20;;;;;;;2.10;1.67;;;5.80;99.90;5.70;102551.00;;;;5043325;27;105289;-67
2021/12/18 06:53:46;;;;;;;3.53;2.00;;;5.90;99.90;5.70;102550.00;;;;5035437;27;122920;-68
2021/12/18 06:56:12;;;;;;;3.67;2.07;;;5.80;99.90;5.70;102552.00;;;;5036043;27;93038;-70
2021/12/18 06:58:38;;;;;;;4.40;2.17;;;5.80;99.90;5.70;102545.00;;;;5047614;27;108748;-69
2021/12/18 07:01:03;;;;;;;5.97;2.13;;;5.80;99.90;5.70;102545.00;;;;5046380;27;121231;-69
2021/12/18 07:03:29;;;;;;;4.40;2.57;;;5.80;99.90;5.70;102541.00;;;;5026289;27;92747;-69
2021/12/18 07:05:55;;;;;;;2.83;1.80;;;5.90;99.90;5.70;102548.00;;;;4997890;27;92919;-68
2021/12/18 07:08:21;;;;;;;2.60;2.13;;;5.90;99.90;5.70;102551.00;;;;5045307;27;93805;-70
2021/12/18 07:10:46;;;;;;;2.60;1.40;;;5.50;99.90;5.70;102559.00;;;;5051176;27;122773;-70
2021/12/18 07:13:12;;;;;;;2.23;1.83;;;5.90;99.90;5.70;102548.00;;;;5034254;27;93505;-68
2021/12/18 07:15:38;;;;;;;3.00;2.03;;;6.00;99.90;5.80;102545.00;;;;5014833;27;102677;-69
2021/12/18 07:18:04;;;;;;;3.10;2.37;;;5.90;99.90;5.80;102547.00;;;;5027079;27;93003;-71
2021/12/18 07:20:31;;;;;;;3.23;1.73;;;6.00;99.90;5.80;102543.00;;;;5053319;27;92769;-66
2021/12/18 07:22:57;;;;;;;5.30;1.83;;;5.90;99.90;5.80;102541.00;;;;5050907;27;93590;-68
2021/12/18 07:25:22;;;;;;;6.30;2.07;;;5.90;99.90;5.80;102541.00;;;;5032531;27;109380;-69
2021/12/18 07:27:48;;;;;;;3.27;2.63;;;6.00;99.90;5.80;102546.00;;;;5024770;27;92877;-69
2021/12/18 07:30:15;;;;;;;3.47;2.43;;;5.90;99.90;5.80;102540.00;;;;5032503;27;122643;-70
2021/12/18 07:32:42;;;;;;;4.93;2.40;;;6.00;99.90;5.80;102537.00;;;;5031040;27;93863;-69
2021/12/18 07:35:09;;;;;;;5.50;2.57;;;6.00;99.90;5.80;102539.00;;;;5054311;27;92755;-67
2021/12/18 07:37:35;;;;;;;4.43;2.30;;;5.90;99.90;5.80;102530.00;;;;5027352;27;92958;-66
2021/12/18 07:40:01;;;;;;;4.63;2.10;;;5.90;99.90;5.80;102522.00;;;;5033072;27;93546;-68
2021/12/18 07:42:27;;;;;;;5.67;2.90;;;5.90;99.90;5.80;102529.00;;;;5024536;27;94213;-68
2021/12/18 07:44:53;;;;;;;4.20;2.57;;;6.00;99.90;5.80;102533.00;;;;5034879;27;93009;-67
2021/12/18 07:47:19;;;;;;;2.50;2.30;;;5.90;99.90;5.80;102537.00;;;;5045200;27;92826;-69
2021/12/18 07:49:45;;;;;;;4.73;2.30;;;5.90;99.90;5.80;102536.00;;;;5054195;27;93238;-69
2021/12/18 07:52:12;;;;;;;4.07;2.97;;;5.90;99.90;5.80;102540.00;;;;5022976;27;104151;-67
2021/12/18 07:54:37;;;;;;;4.87;3.00;;;6.00;99.90;5.80;102539.00;;;;5054221;27;92744;-68
2021/12/18 07:57:04;;;;;;;5.77;3.33;;;6.00;99.90;5.80;102536.00;;;;5029873;27;93798;-68
2021/12/18 07:59:29;;;;;;;6.97;3.87;;;5.90;99.90;5.80;102531.00;;;;5034760;27;104235;-69
2021/12/18 08:01:55;;;;;;;3.97;2.90;;;6.00;99.90;5.80;102525.00;;;;4999539;27;94938;-68
2021/12/18 08:04:21;;;;;;;4.23;2.97;;;6.00;99.90;5.80;102529.00;;;;5035947;27;109266;-68
2021/12/18 08:06:47;;;;;;;7.73;4.23;;;6.00;99.90;5.90;102539.00;;;;5028558;27;107395;-68
2021/12/18 08:09:12;;;;;;;6.23;3.40;;;6.00;99.90;5.90;102541.00;;;;5033863;27;122242;-67
2021/12/18 08:11:38;;;;;;;5.83;3.60;;;6.00;99.90;5.90;102533.00;;;;5029457;27;93588;-67
2021/12/18 08:14:04;;;;;;;6.03;2.57;;;6.00;99.90;5.90;102530.00;;;;5050364;27;92218;-68
2021/12/18 08:16:30;;;;;;;3.83;2.83;;;6.00;99.90;5.90;102527.00;;;;5031945;27;92865;-68
2021/12/18 08:18:55;;;;;;;3.73;2.63;;;6.10;99.90;5.90;102531.00;;;;5031457;27;117895;-68
2021/12/18 08:21:21;;;;;;;4.27;2.37;;;6.10;99.90;5.90;102520.00;;;;5052734;27;115067;-69
2021/12/18 08:23:47;;;;;;;4.30;2.77;;;6.10;99.90;5.90;102521.00;;;;5056280;27;102283;-69
2021/12/18 08:26:13;;;;;;;6.27;3.27;;;6.00;99.90;5.90;102511.00;;;;5055604;27;108257;-68
2021/12/18 08:28:38;;;;;;;4.27;2.53;;;6.10;99.90;5.90;102510.00;;;;5036239;27;120358;-68
2021/12/18 08:31:04;;;;;;;4.93;3.13;;;6.10;99.90;5.90;102499.00;;;;5051932;27;122711;-69
2021/12/18 08:33:30;;;;;;;4.30;2.80;;;6.00;99.90;5.90;102501.00;;;;5048803;27;93044;-67
2021/12/18 08:35:55;;;;;;;4.63;3.50;;;6.00;99.90;5.90;102510.00;;;;5045264;27;92764;-67
2021/12/18 08:38:21;;;;;;;5.40;3.07;;;6.10;99.90;5.90;102516.00;;;;5020259;27;123062;-68
2021/12/18 08:40:49;;;;;;;4.60;2.60;;;6.00;99.90;5.90;102505.00;;;;5032800;27;93006;-69
2021/12/18 08:43:14;;;;;;;7.67;3.57;;;6.00;99.90;5.90;102504.00;;;;5023038;27;92891;-70
2021/12/18 08:45:40;;;;;;;5.30;3.53;;;5.80;99.90;6.00;102511.00;;;;5032846;27;109794;-69
2021/12/18 08:48:06;;;;;;;5.53;2.93;;;6.10;99.90;6.00;102514.00;;;;5034316;27;123237;-69
2021/12/18 08:50:32;;;;;;;4.73;2.67;;;6.20;99.90;6.00;102511.00;;;;5033825;27;93004;-68
2021/12/18 08:52:58;;;;;;;5.07;3.97;;;6.10;99.90;6.00;102517.00;;;;5023992;27;93058;-69
2021/12/18 08:55:24;;;;;;;5.70;3.30;;;6.10;99.90;6.00;102517.00;;;;5020964;27;92847;-68
2021/12/18 08:57:50;;;;;;;5.40;3.87;;;6.20;99.90;6.10;102510.00;;;;5027558;27;94127;-69
2021/12/18 09:00:20;;;;;;;9.23;4.30;;;6.20;99.90;6.10;102517.00;;;;5032852;27;108152;-67
2021/12/18 09:02:51;;;;;;;6.83;3.77;;;6.30;99.90;6.10;102507.00;;;;5031186;27;93682;-68
2021/12/18 09:05:17;;;;;;;5.77;3.57;;;6.20;99.90;6.20;102513.00;;;;5013778;27;93067;-67
2021/12/18 09:07:43;;;;;;;6.23;3.57;;;6.30;99.90;6.20;102503.00;;;;5024035;27;104155;-67
2021/12/18 09:10:11;;;;;;;6.70;3.50;;;6.40;99.90;6.20;102511.00;;;;5033901;27;93837;-67
2021/12/18 09:12:37;;;;;;;6.20;4.13;;;6.40;99.90;6.20;102506.00;;;;5029858;27;92878;-67
2021/12/18 09:15:03;;;;;;;6.60;4.07;;;6.40;99.90;6.30;102518.00;;;;5040017;27;92918;-66
2021/12/18 09:17:29;;;;;;;7.03;3.97;;;6.40;99.90;6.30;102516.00;;;;5023272;27;104198;-66
2021/12/18 09:19:55;;;;;;;8.30;4.77;;;6.40;99.90;6.30;102510.00;;;;5037989;27;93732;-67
2021/12/18 09:22:22;;;;;;;7.73;4.20;;;6.50;99.90;6.40;102509.00;;;;5028938;27;92802;-67
2021/12/18 09:24:48;;;;;;;7.70;4.07;;;6.50;99.90;6.40;102510.00;;;;5045200;27;93014;-68
2021/12/18 09:27:15;;;;;;;6.90;4.57;;;6.10;99.90;6.40;102502.00;;;;5019877;27;92553;-67
2021/12/18 09:29:41;;;;;;;6.63;3.87;;;6.50;99.90;6.40;102502.00;;;;5038857;27;93440;-68
2021/12/18 09:32:08;;;;;;;4.90;3.43;;;6.50;99.90;6.40;102500.00;;;;5022969;27;98534;-68
2021/12/18 09:34:34;;;;;;;5.73;4.00;;;6.50;99.90;6.40;102490.00;;;;5034024;27;93780;-70
2021/12/18 09:37:00;;;;;;;5.43;3.40;;;6.60;99.90;6.40;102486.00;;;;5036103;27;94460;-68
2021/12/18 09:39:27;;;;;;;7.97;4.33;;;6.50;99.90;6.40;102490.00;;;;5032434;27;93096;-68
2021/12/18 09:41:53;;;;;;;6.00;3.60;;;6.60;99.90;6.40;102486.00;;;;5023561;27;92970;-69
2021/12/18 09:44:25;;;;;;;6.07;3.10;;;6.60;99.90;6.40;102486.00;;;;5035537;27;108989;-69
2021/12/18 09:46:51;;;;;;;4.77;3.40;;;6.50;99.90;6.50;102478.00;;;;5022921;27;109979;-67
2021/12/18 09:49:17;;;;;;;5.30;3.77;;;6.60;99.90;6.40;102467.00;;;;5030466;27;108379;-68
2021/12/18 09:51:43;;;;;;;6.80;3.87;;;6.60;99.90;6.50;102458.00;;;;5028559;27;103909;-69
2021/12/18 09:54:09;;;;;;;6.17;3.43;;;6.60;99.90;6.40;102463.00;;;;5012516;27;101778;-68
2021/12/18 09:56:35;;;;;;;5.00;3.37;;;6.60;99.90;6.40;102456.00;;;;5025215;27;119887;-67
2021/12/18 09:59:00;;;;;;;6.53;3.77;;;6.60;99.90;6.40;102453.00;;;;5009463;27;93914;-67
2021/12/18 10:01:26;;;;;;;7.03;3.97;;;6.60;99.90;6.40;102442.00;;;;5019667;27;109238;-68
2021/12/18 10:03:58;;;;;;;8.97;4.47;;;6.60;99.90;6.40;102441.00;;;;5026552;27;108587;-67
2021/12/18 10:06:40;;;;;;;7.63;4.30;;;6.50;99.90;6.40;102431.00;;;;5022994;27;92865;-67
2021/12/18 10:09:17;;;;;;;6.43;4.37;;;6.60;99.90;6.40;102431.00;;;;5028964;27;92851;-68
2021/12/18 10:11:56;;;;;;;7.67;4.43;;;6.60;99.90;6.40;102434.00;;;;5026090;27;92709;-67
2021/12/18 10:14:38;;;;;;;7.50;4.23;;;6.60;99.90;6.40;102432.00;;;;5015866;27;92787;-67
2021/12/18 10:17:18;;;;;;;6.57;4.30;;;6.50;99.90;6.40;102436.00;;;;5032526;27;92602;-68
2021/12/18 10:19:44;;;;;;;10.23;5.37;;;6.50;99.90;6.40;102440.00;;;;5038943;27;92880;-68
2021/12/18 10:22:13;;;;;;;7.23;4.43;;;6.50;99.90;6.40;102429.00;;;;5034887;27;112049;-69
2021/12/18 10:24:44;;;;;;;9.50;4.80;;;6.90;99.90;6.40;102430.00;;;;5013240;27;94365;-69
2021/12/18 10:27:20;;;;;;;10.20;4.10;;;6.60;99.90;6.40;102426.00;;;;5022499;27;93364;-69
2021/12/18 10:29:49;;;;;;;7.57;4.43;;;6.60;99.90;6.40;102439.00;;;;5021980;27;93983;-68
2021/12/18 10:32:19;;;;;;;11.27;5.23;;;6.60;99.90;6.40;102418.00;;;;5041853;27;97803;-68
2021/12/18 10:34:57;;;;;;;9.13;4.37;;;6.60;99.90;6.40;102420.00;;;;5039695;27;92682;-69
2021/12/18 10:37:31;;;;;;;7.97;4.43;;;6.60;99.90;6.50;102412.00;;;;5037737;27;93003;-67
2021/12/18 10:40:00;;;;;;;9.10;4.03;;;6.60;99.90;6.50;102409.00;;;;5012504;27;93183;-68
2021/12/18 10:42:34;;;;;;;7.13;3.80;;;6.60;99.90;6.50;102411.00;;;;5041068;27;92052;-67
2021/12/18 10:45:16;;;;;;;6.47;3.43;;;6.60;99.90;6.50;102411.00;;;;5031230;27;92810;-68
2021/12/18 10:47:56;;;;;;;6.90;4.13;;;6.60;99.90;6.50;102403.00;;;;5023119;27;93403;-69
2021/12/18 10:50:51;;;;;;;7.83;3.87;;;6.60;99.90;6.50;102411.00;;;;5043448;27;93781;-70
2021/12/18 10:53:20;;;;;;;5.43;3.23;;;6.70;99.90;6.50;102409.00;;;;5039199;27;92884;-68
2021/12/18 10:55:50;;;;;;;5.10;3.60;;;6.60;99.90;6.50;102408.00;;;;5035817;27;97242;-69
2021/12/18 10:58:27;;;;;;;8.17;3.07;;;6.60;99.90;6.50;102416.00;;;;5028145;27;95277;-68
2021/12/18 11:00:58;;;;;;;8.03;4.40;;;6.60;99.90;6.50;102413.00;;;;5025975;27;100557;-68
2021/12/18 11:03:44;;;;;;;6.67;3.47;;;6.60;99.90;6.50;102409.00;;;;5030272;27;95833;-68
2021/12/18 11:06:28;;;;;;;3.60;2.60;;;6.60;99.90;6.50;102394.00;;;;5032125;27;93046;-67
2021/12/18 11:09:05;;;;;;;5.53;3.73;;;6.60;99.90;6.50;102399.00;;;;5037293;27;103702;-68
2021/12/18 11:14:15;;;;;;;5.73;3.40;;;6.70;99.90;6.50;102387.00;;;;5039721;27;92675;-69
2021/12/18 11:16:48;;;;;;;5.20;2.83;;;7.30;99.90;6.50;102376.00;;;;5030840;27;93817;-68
2021/12/18 11:19:20;;;;;;;3.17;2.70;;;6.70;99.90;6.50;102384.00;;;;5031168;27;94487;-68
2021/12/18 11:21:55;;;;;;;10.30;3.73;;;6.80;99.90;6.50;102376.00;;;;5034253;27;92778;-67
2021/12/18 11:24:29;;;;;;;5.40;3.57;;;6.60;99.90;6.50;102378.00;;;;5040290;27;92773;-66
2021/12/18 11:27:13;;;;;;;6.20;2.70;;;6.90;99.90;6.50;102359.00;;;;5018528;27;93468;-68
2021/12/18 11:29:51;;;;;;;7.57;3.00;;;6.70;99.90;6.50;102364.00;;;;5011160;27;96060;-68
2021/12/18 11:32:24;;;;;;;2.53;2.13;;;6.70;99.90;6.50;102362.00;;;;5034497;27;93778;-69
2021/12/18 11:34:54;;;;;;;5.07;2.67;;;6.60;99.90;6.40;102360.00;;;;5036672;27;92371;-69
2021/12/18 11:37:21;;;;;;;2.43;1.80;;;6.60;99.90;6.40;102359.00;;;;5033009;27;93020;-69
2021/12/18 11:39:49;;;;;;;3.47;2.27;;;6.60;99.90;6.40;102346.00;;;;5019704;27;93690;-67
2021/12/18 11:42:17;;;;;;;3.97;2.43;;;6.60;99.90;6.40;102345.00;;;;5039600;27;93834;-68
2021/12/18 11:44:53;;;;;;;2.70;1.77;;;6.60;99.90;6.40;102344.00;;;;5036458;27;96461;-69
2021/12/18 11:47:34;;;;;;;4.93;2.50;;;6.60;99.90;6.50;102343.00;;;;5036492;27;92975;-67